Auburn, Iowa
Current Conditions -  °F | °C
As of 3:55 PM on Wednesday 28 Jan 2015 (Local Time) from KCIN Reporting Station
Clear Clear  
Wind Chill: 43°   Ceiling: Unl
Heat Index: 48°   Visibility: 10mi
Dew Point: 39°   Wind: 13mph
Humidity: 71%   Direction: 150°SSE
Pressure: 29.67"   Gusts: 20mph
Location:  42.25°N, 94.88°W
Report Text: KCIN 282155Z AUTO 15011G17KT 10SM CLR 09/04 A2967 RMK AO2
Loading
Personal Weather Stations






























Interactive Weather Map New forecast layout! Learn more

10-Day Weather Forecast

Advertisements
Track Severe Weather on mobile